sensor_id;sensor_type;location;lat;lon;timestamp;P1;durP1;ratioP1;P2;durP2;ratioP2
25972;SDS011;13765;51.166;4.466;2022-11-14T00:00:42;20.85;;;9.18;;
25972;SDS011;13765;51.166;4.466;2022-11-14T00:03:11;22.00;;;9.50;;
25972;SDS011;13765;51.166;4.466;2022-11-14T00:05:38;21.75;;;9.85;;
25972;SDS011;13765;51.166;4.466;2022-11-14T00:08:05;28.15;;;9.20;;
25972;SDS011;13765;51.166;4.466;2022-11-14T00:10:33;20.13;;;9.57;;
25972;SDS011;13765;51.166;4.466;2022-11-14T00:13:01;25.45;;;9.23;;
25972;SDS011;13765;51.166;4.466;2022-11-14T00:15:26;21.17;;;9.07;;
25972;SDS011;13765;51.166;4.466;2022-11-14T00:17:54;17.55;;;7.40;;
25972;SDS011;13765;51.166;4.466;2022-11-14T00:20:20;20.95;;;9.52;;
25972;SDS011;13765;51.166;4.466;2022-11-14T00:22:45;21.02;;;8.82;;
25972;SDS011;13765;51.166;4.466;2022-11-14T00:25:11;22.83;;;7.78;;
25972;SDS011;13765;51.166;4.466;2022-11-14T00:27:37;26.75;;;9.25;;
25972;SDS011;13765;51.166;4.466;2022-11-14T00:30:03;24.42;;;9.20;;
25972;SDS011;13765;51.166;4.466;2022-11-14T00:32:29;28.05;;;9.27;;
25972;SDS011;13765;51.166;4.466;2022-11-14T00:34:56;16.70;;;7.35;;
25972;SDS011;13765;51.166;4.466;2022-11-14T00:37:24;18.23;;;8.15;;
25972;SDS011;13765;51.166;4.466;2022-11-14T00:39:51;19.77;;;8.07;;
25972;SDS011;13765;51.166;4.466;2022-11-14T00:42:17;21.63;;;9.13;;
25972;SDS011;13765;51.166;4.466;2022-11-14T00:44:43;17.65;;;7.97;;
25972;SDS011;13765;51.166;4.466;2022-11-14T00:47:11;17.00;;;7.28;;
25972;SDS011;13765;51.166;4.466;2022-11-14T00:49:37;18.40;;;7.43;;
25972;SDS011;13765;51.166;4.466;2022-11-14T00:52:03;18.27;;;7.55;;
25972;SDS011;13765;51.166;4.466;2022-11-14T00:54:31;20.17;;;8.18;;
25972;SDS011;13765;51.166;4.466;2022-11-14T00:56:57;20.08;;;7.90;;
25972;SDS011;13765;51.166;4.466;2022-11-14T00:59:23;20.38;;;8.57;;
25972;SDS011;13765;51.166;4.466;2022-11-14T01:01:52;21.02;;;7.57;;
25972;SDS011;13765;51.166;4.466;2022-11-14T01:04:19;20.92;;;9.27;;
25972;SDS011;13765;51.166;4.466;2022-11-14T01:06:50;19.23;;;9.23;;
25972;SDS011;13765;51.166;4.466;2022-11-14T01:09:17;20.08;;;8.43;;
25972;SDS011;13765;51.166;4.466;2022-11-14T01:11:43;20.02;;;8.60;;
25972;SDS011;13765;51.166;4.466;2022-11-14T01:14:13;21.30;;;8.60;;
25972;SDS011;13765;51.166;4.466;2022-11-14T01:16:41;22.23;;;7.85;;
25972;SDS011;13765;51.166;4.466;2022-11-14T01:19:07;20.95;;;9.98;;
25972;SDS011;13765;51.166;4.466;2022-11-14T01:21:33;22.50;;;8.52;;
25972;SDS011;13765;51.166;4.466;2022-11-14T01:23:59;20.67;;;8.68;;
25972;SDS011;13765;51.166;4.466;2022-11-14T01:26:25;20.65;;;7.90;;
25972;SDS011;13765;51.166;4.466;2022-11-14T01:28:55;22.27;;;8.88;;
25972;SDS011;13765;51.166;4.466;2022-11-14T01:31:22;24.65;;;10.10;;
25972;SDS011;13765;51.166;4.466;2022-11-14T01:33:52;20.63;;;8.80;;
25972;SDS011;13765;51.166;4.466;2022-11-14T01:36:20;19.60;;;9.35;;
25972;SDS011;13765;51.166;4.466;2022-11-14T01:38:52;26.00;;;9.27;;
25972;SDS011;13765;51.166;4.466;2022-11-14T01:41:19;21.35;;;10.15;;
25972;SDS011;13765;51.166;4.466;2022-11-14T01:43:45;19.90;;;9.35;;
25972;SDS011;13765;51.166;4.466;2022-11-14T01:46:30;25.08;;;10.65;;
25972;SDS011;13765;51.166;4.466;2022-11-14T01:49:14;22.48;;;9.13;;
25972;SDS011;13765;51.166;4.466;2022-11-14T01:54:26;25.35;;;9.70;;
25972;SDS011;13765;51.166;4.466;2022-11-14T01:56:55;20.23;;;9.57;;
25972;SDS011;13765;51.166;4.466;2022-11-14T01:59:40;25.20;;;9.35;;
25972;SDS011;13765;51.166;4.466;2022-11-14T02:02:21;22.13;;;8.85;;
25972;SDS011;13765;51.166;4.466;2022-11-14T02:04:59;24.20;;;9.73;;
25972;SDS011;13765;51.166;4.466;2022-11-14T02:07:33;18.58;;;7.80;;
25972;SDS011;13765;51.166;4.466;2022-11-14T02:10:07;20.25;;;8.77;;
25972;SDS011;13765;51.166;4.466;2022-11-14T02:12:37;21.20;;;9.80;;
25972;SDS011;13765;51.166;4.466;2022-11-14T02:15:03;22.77;;;9.38;;
25972;SDS011;13765;51.166;4.466;2022-11-14T02:17:29;22.15;;;10.70;;
25972;SDS011;13765;51.166;4.466;2022-11-14T02:22:42;25.45;;;10.15;;
25972;SDS011;13765;51.166;4.466;2022-11-14T02:25:08;21.40;;;8.70;;
25972;SDS011;13765;51.166;4.466;2022-11-14T02:27:36;18.77;;;8.27;;
25972;SDS011;13765;51.166;4.466;2022-11-14T02:30:07;20.73;;;9.35;;
25972;SDS011;13765;51.166;4.466;2022-11-14T02:32:37;20.85;;;9.50;;
25972;SDS011;13765;51.166;4.466;2022-11-14T02:35:02;21.77;;;9.73;;
25972;SDS011;13765;51.166;4.466;2022-11-14T02:37:28;22.15;;;8.75;;
25972;SDS011;13765;51.166;4.466;2022-11-14T02:39:57;25.75;;;8.57;;
25972;SDS011;13765;51.166;4.466;2022-11-14T02:42:25;26.25;;;10.73;;
25972;SDS011;13765;51.166;4.466;2022-11-14T02:44:51;22.67;;;10.40;;
25972;SDS011;13765;51.166;4.466;2022-11-14T02:47:20;20.08;;;8.70;;
25972;SDS011;13765;51.166;4.466;2022-11-14T02:49:48;23.10;;;9.57;;
25972;SDS011;13765;51.166;4.466;2022-11-14T02:52:14;25.55;;;10.68;;
25972;SDS011;13765;51.166;4.466;2022-11-14T02:54:40;20.15;;;9.27;;
25972;SDS011;13765;51.166;4.466;2022-11-14T02:57:08;22.85;;;8.73;;
25972;SDS011;13765;51.166;4.466;2022-11-14T02:59:37;20.83;;;9.45;;
25972;SDS011;13765;51.166;4.466;2022-11-14T03:02:03;24.33;;;9.10;;
25972;SDS011;13765;51.166;4.466;2022-11-14T03:04:29;19.70;;;8.57;;
25972;SDS011;13765;51.166;4.466;2022-11-14T03:06:54;20.13;;;8.40;;
25972;SDS011;13765;51.166;4.466;2022-11-14T03:09:20;20.05;;;10.52;;
25972;SDS011;13765;51.166;4.466;2022-11-14T03:11:46;25.05;;;11.05;;
25972;SDS011;13765;51.166;4.466;2022-11-14T03:14:14;20.92;;;8.70;;
25972;SDS011;13765;51.166;4.466;2022-11-14T03:16:42;22.50;;;9.07;;
25972;SDS011;13765;51.166;4.466;2022-11-14T03:19:08;22.48;;;9.05;;
25972;SDS011;13765;51.166;4.466;2022-11-14T03:21:33;19.42;;;8.13;;
25972;SDS011;13765;51.166;4.466;2022-11-14T03:23:59;22.75;;;9.20;;
25972;SDS011;13765;51.166;4.466;2022-11-14T03:26:25;21.48;;;8.93;;
25972;SDS011;13765;51.166;4.466;2022-11-14T03:28:50;24.23;;;10.68;;
25972;SDS011;13765;51.166;4.466;2022-11-14T03:31:16;19.55;;;8.07;;
25972;SDS011;13765;51.166;4.466;2022-11-14T03:33:45;18.30;;;8.63;;
25972;SDS011;13765;51.166;4.466;2022-11-14T03:36:10;24.55;;;10.55;;
25972;SDS011;13765;51.166;4.466;2022-11-14T03:38:36;19.17;;;8.82;;
25972;SDS011;13765;51.166;4.466;2022-11-14T03:41:04;26.13;;;10.15;;
25972;SDS011;13765;51.166;4.466;2022-11-14T03:43:31;20.35;;;9.98;;
25972;SDS011;13765;51.166;4.466;2022-11-14T03:46:01;18.35;;;8.63;;
25972;SDS011;13765;51.166;4.466;2022-11-14T03:48:29;23.60;;;9.82;;
25972;SDS011;13765;51.166;4.466;2022-11-14T03:50:56;22.42;;;10.35;;
25972;SDS011;13765;51.166;4.466;2022-11-14T03:53:22;20.33;;;9.48;;
25972;SDS011;13765;51.166;4.466;2022-11-14T03:55:48;20.10;;;8.02;;
25972;SDS011;13765;51.166;4.466;2022-11-14T03:58:19;22.10;;;9.95;;
25972;SDS011;13765;51.166;4.466;2022-11-14T04:00:45;20.17;;;7.95;;
25972;SDS011;13765;51.166;4.466;2022-11-14T04:03:13;21.10;;;8.25;;
25972;SDS011;13765;51.166;4.466;2022-11-14T04:05:38;22.98;;;9.93;;
25972;SDS011;13765;51.166;4.466;2022-11-14T04:08:09;17.50;;;8.30;;
25972;SDS011;13765;51.166;4.466;2022-11-14T04:10:37;22.50;;;8.15;;
25972;SDS011;13765;51.166;4.466;2022-11-14T04:13:06;19.10;;;8.18;;
25972;SDS011;13765;51.166;4.466;2022-11-14T04:15:32;20.38;;;8.05;;
25972;SDS011;13765;51.166;4.466;2022-11-14T04:18:00;23.90;;;8.57;;
25972;SDS011;13765;51.166;4.466;2022-11-14T04:20:25;22.95;;;9.35;;
25972;SDS011;13765;51.166;4.466;2022-11-14T04:22:51;24.35;;;9.95;;
25972;SDS011;13765;51.166;4.466;2022-11-14T04:25:17;18.08;;;7.82;;
25972;SDS011;13765;51.166;4.466;2022-11-14T04:27:43;22.58;;;10.05;;
25972;SDS011;13765;51.166;4.466;2022-11-14T04:30:09;19.02;;;8.70;;
25972;SDS011;13765;51.166;4.466;2022-11-14T04:32:35;17.30;;;8.32;;
25972;SDS011;13765;51.166;4.466;2022-11-14T04:35:05;22.40;;;9.40;;
25972;SDS011;13765;51.166;4.466;2022-11-14T04:37:36;21.50;;;9.25;;
25972;SDS011;13765;51.166;4.466;2022-11-14T04:40:03;23.65;;;9.30;;
25972;SDS011;13765;51.166;4.466;2022-11-14T04:42:29;20.80;;;9.32;;
25972;SDS011;13765;51.166;4.466;2022-11-14T04:44:55;22.85;;;9.15;;
25972;SDS011;13765;51.166;4.466;2022-11-14T04:47:23;21.77;;;8.77;;
25972;SDS011;13765;51.166;4.466;2022-11-14T04:49:49;23.50;;;11.05;;
25972;SDS011;13765;51.166;4.466;2022-11-14T04:52:15;18.58;;;8.02;;
25972;SDS011;13765;51.166;4.466;2022-11-14T04:54:41;17.83;;;9.10;;
25972;SDS011;13765;51.166;4.466;2022-11-14T04:57:08;19.73;;;8.82;;
25972;SDS011;13765;51.166;4.466;2022-11-14T04:59:34;23.17;;;8.75;;
25972;SDS011;13765;51.166;4.466;2022-11-14T05:02:04;16.77;;;6.90;;
25972;SDS011;13765;51.166;4.466;2022-11-14T05:04:30;22.73;;;8.75;;
25972;SDS011;13765;51.166;4.466;2022-11-14T05:06:56;16.77;;;8.80;;
25972;SDS011;13765;51.166;4.466;2022-11-14T05:09:24;25.35;;;9.27;;
25972;SDS011;13765;51.166;4.466;2022-11-14T05:11:50;15.23;;;7.18;;
25972;SDS011;13765;51.166;4.466;2022-11-14T05:14:21;13.32;;;7.18;;
25972;SDS011;13765;51.166;4.466;2022-11-14T05:16:47;20.10;;;9.20;;
25972;SDS011;13765;51.166;4.466;2022-11-14T05:19:13;21.27;;;9.05;;
25972;SDS011;13765;51.166;4.466;2022-11-14T05:21:41;21.15;;;8.27;;
25972;SDS011;13765;51.166;4.466;2022-11-14T05:24:07;19.52;;;8.45;;
25972;SDS011;13765;51.166;4.466;2022-11-14T05:26:34;24.33;;;8.73;;
25972;SDS011;13765;51.166;4.466;2022-11-14T05:29:00;21.85;;;8.40;;
25972;SDS011;13765;51.166;4.466;2022-11-14T05:31:29;19.25;;;9.15;;
25972;SDS011;13765;51.166;4.466;2022-11-14T05:34:02;22.80;;;9.25;;
25972;SDS011;13765;51.166;4.466;2022-11-14T05:36:28;18.48;;;8.77;;
25972;SDS011;13765;51.166;4.466;2022-11-14T05:38:56;18.33;;;7.60;;
25972;SDS011;13765;51.166;4.466;2022-11-14T05:41:25;20.75;;;7.78;;
25972;SDS011;13765;51.166;4.466;2022-11-14T05:43:53;19.67;;;8.68;;
25972;SDS011;13765;51.166;4.466;2022-11-14T05:46:24;17.95;;;8.00;;
25972;SDS011;13765;51.166;4.466;2022-11-14T05:48:50;20.60;;;8.65;;
25972;SDS011;13765;51.166;4.466;2022-11-14T05:51:16;20.98;;;8.45;;
25972;SDS011;13765;51.166;4.466;2022-11-14T05:53:42;17.15;;;8.50;;
25972;SDS011;13765;51.166;4.466;2022-11-14T05:56:10;21.08;;;10.13;;
25972;SDS011;13765;51.166;4.466;2022-11-14T05:58:39;20.05;;;8.45;;
25972;SDS011;13765;51.166;4.466;2022-11-14T06:01:06;24.88;;;9.23;;
25972;SDS011;13765;51.166;4.466;2022-11-14T06:03:42;21.65;;;9.65;;
25972;SDS011;13765;51.166;4.466;2022-11-14T06:06:10;23.92;;;8.40;;
25972;SDS011;13765;51.166;4.466;2022-11-14T06:08:38;26.15;;;9.40;;
25972;SDS011;13765;51.166;4.466;2022-11-14T06:11:08;21.17;;;8.45;;
25972;SDS011;13765;51.166;4.466;2022-11-14T06:13:39;21.40;;;9.45;;
25972;SDS011;13765;51.166;4.466;2022-11-14T06:16:07;20.17;;;8.02;;
25972;SDS011;13765;51.166;4.466;2022-11-14T06:18:39;19.85;;;8.27;;
25972;SDS011;13765;51.166;4.466;2022-11-14T06:21:14;21.27;;;8.27;;
25972;SDS011;13765;51.166;4.466;2022-11-14T06:23:44;23.42;;;11.02;;
25972;SDS011;13765;51.166;4.466;2022-11-14T06:26:29;23.63;;;9.60;;
25972;SDS011;13765;51.166;4.466;2022-11-14T06:29:00;22.42;;;9.32;;
25972;SDS011;13765;51.166;4.466;2022-11-14T06:31:26;16.60;;;8.30;;
25972;SDS011;13765;51.166;4.466;2022-11-14T06:33:55;23.08;;;9.00;;
25972;SDS011;13765;51.166;4.466;2022-11-14T06:36:21;24.70;;;9.48;;
25972;SDS011;13765;51.166;4.466;2022-11-14T06:38:47;21.83;;;10.05;;
25972;SDS011;13765;51.166;4.466;2022-11-14T06:41:18;19.85;;;9.07;;
25972;SDS011;13765;51.166;4.466;2022-11-14T06:43:46;19.63;;;8.25;;
25972;SDS011;13765;51.166;4.466;2022-11-14T06:46:15;20.05;;;8.82;;
25972;SDS011;13765;51.166;4.466;2022-11-14T06:48:45;16.10;;;6.97;;
25972;SDS011;13765;51.166;4.466;2022-11-14T06:51:12;19.27;;;8.35;;
25972;SDS011;13765;51.166;4.466;2022-11-14T06:53:43;24.23;;;8.95;;
25972;SDS011;13765;51.166;4.466;2022-11-14T06:56:14;25.08;;;8.85;;
25972;SDS011;13765;51.166;4.466;2022-11-14T06:58:44;25.52;;;8.07;;
25972;SDS011;13765;51.166;4.466;2022-11-14T07:01:17;23.25;;;8.82;;
25972;SDS011;13765;51.166;4.466;2022-11-14T07:03:45;23.90;;;10.00;;
25972;SDS011;13765;51.166;4.466;2022-11-14T07:06:15;19.70;;;8.68;;
25972;SDS011;13765;51.166;4.466;2022-11-14T07:08:43;22.00;;;10.15;;
25972;SDS011;13765;51.166;4.466;2022-11-14T07:11:13;26.40;;;9.40;;
25972;SDS011;13765;51.166;4.466;2022-11-14T07:13:53;23.08;;;10.48;;
25972;SDS011;13765;51.166;4.466;2022-11-14T07:16:25;20.63;;;8.40;;
25972;SDS011;13765;51.166;4.466;2022-11-14T07:19:05;20.30;;;9.43;;
25972;SDS011;13765;51.166;4.466;2022-11-14T07:21:34;24.42;;;10.40;;
25972;SDS011;13765;51.166;4.466;2022-11-14T07:24:03;22.90;;;10.38;;
25972;SDS011;13765;51.166;4.466;2022-11-14T07:26:31;22.95;;;8.77;;
25972;SDS011;13765;51.166;4.466;2022-11-14T07:28:57;23.38;;;9.65;;
25972;SDS011;13765;51.166;4.466;2022-11-14T07:31:23;37.88;;;10.43;;
25972;SDS011;13765;51.166;4.466;2022-11-14T07:33:49;24.77;;;10.52;;
25972;SDS011;13765;51.166;4.466;2022-11-14T07:36:14;21.30;;;10.40;;
25972;SDS011;13765;51.166;4.466;2022-11-14T07:38:41;24.63;;;10.60;;
25972;SDS011;13765;51.166;4.466;2022-11-14T07:41:10;22.98;;;9.85;;
25972;SDS011;13765;51.166;4.466;2022-11-14T07:43:40;22.42;;;9.88;;
25972;SDS011;13765;51.166;4.466;2022-11-14T07:46:07;19.65;;;9.68;;
25972;SDS011;13765;51.166;4.466;2022-11-14T07:48:36;20.42;;;8.98;;
25972;SDS011;13765;51.166;4.466;2022-11-14T07:51:03;24.27;;;9.70;;
25972;SDS011;13765;51.166;4.466;2022-11-14T07:53:30;28.23;;;9.90;;
25972;SDS011;13765;51.166;4.466;2022-11-14T07:56:03;20.75;;;9.20;;
25972;SDS011;13765;51.166;4.466;2022-11-14T07:58:33;22.02;;;10.75;;
25972;SDS011;13765;51.166;4.466;2022-11-14T08:01:03;23.23;;;9.88;;
25972;SDS011;13765;51.166;4.466;2022-11-14T08:03:30;20.90;;;9.38;;
25972;SDS011;13765;51.166;4.466;2022-11-14T08:06:13;22.92;;;10.27;;
25972;SDS011;13765;51.166;4.466;2022-11-14T08:08:43;22.02;;;8.95;;
25972;SDS011;13765;51.166;4.466;2022-11-14T08:11:09;21.75;;;8.95;;
25972;SDS011;13765;51.166;4.466;2022-11-14T08:13:40;29.35;;;9.80;;
25972;SDS011;13765;51.166;4.466;2022-11-14T08:16:08;27.60;;;9.48;;
25972;SDS011;13765;51.166;4.466;2022-11-14T08:18:35;22.13;;;10.57;;
25972;SDS011;13765;51.166;4.466;2022-11-14T08:21:04;28.67;;;12.35;;
25972;SDS011;13765;51.166;4.466;2022-11-14T08:23:30;25.20;;;10.50;;
25972;SDS011;13765;51.166;4.466;2022-11-14T08:25:57;21.17;;;9.43;;
25972;SDS011;13765;51.166;4.466;2022-11-14T08:28:23;25.00;;;9.85;;
25972;SDS011;13765;51.166;4.466;2022-11-14T08:30:49;22.80;;;10.18;;
25972;SDS011;13765;51.166;4.466;2022-11-14T08:33:17;29.13;;;9.07;;
25972;SDS011;13765;51.166;4.466;2022-11-14T08:35:43;24.05;;;9.95;;
25972;SDS011;13765;51.166;4.466;2022-11-14T08:38:13;22.13;;;11.00;;
25972;SDS011;13765;51.166;4.466;2022-11-14T08:40:40;23.17;;;9.85;;
25972;SDS011;13765;51.166;4.466;2022-11-14T08:43:08;23.70;;;11.02;;
25972;SDS011;13765;51.166;4.466;2022-11-14T08:45:35;28.15;;;12.45;;
25972;SDS011;13765;51.166;4.466;2022-11-14T08:48:04;27.60;;;10.80;;
25972;SDS011;13765;51.166;4.466;2022-11-14T08:50:30;25.65;;;11.55;;
25972;SDS011;13765;51.166;4.466;2022-11-14T08:52:58;24.48;;;10.88;;
25972;SDS011;13765;51.166;4.466;2022-11-14T08:55:26;25.17;;;11.15;;
25972;SDS011;13765;51.166;4.466;2022-11-14T08:57:53;30.83;;;12.82;;
25972;SDS011;13765;51.166;4.466;2022-11-14T09:00:18;23.13;;;12.00;;
25972;SDS011;13765;51.166;4.466;2022-11-14T09:02:44;33.75;;;12.45;;
25972;SDS011;13765;51.166;4.466;2022-11-14T09:05:11;24.85;;;11.68;;
25972;SDS011;13765;51.166;4.466;2022-11-14T09:07:36;24.75;;;10.05;;
25972;SDS011;13765;51.166;4.466;2022-11-14T09:10:05;25.35;;;11.50;;
25972;SDS011;13765;51.166;4.466;2022-11-14T09:12:31;19.17;;;8.50;;
25972;SDS011;13765;51.166;4.466;2022-11-14T09:15:00;23.85;;;9.60;;
25972;SDS011;13765;51.166;4.466;2022-11-14T09:17:26;27.15;;;10.23;;
25972;SDS011;13765;51.166;4.466;2022-11-14T09:19:52;24.92;;;9.85;;
25972;SDS011;13765;51.166;4.466;2022-11-14T09:22:21;29.73;;;10.40;;
25972;SDS011;13765;51.166;4.466;2022-11-14T09:24:47;24.13;;;9.95;;
25972;SDS011;13765;51.166;4.466;2022-11-14T09:27:13;30.13;;;9.40;;
25972;SDS011;13765;51.166;4.466;2022-11-14T09:29:44;25.45;;;10.38;;
25972;SDS011;13765;51.166;4.466;2022-11-14T09:32:10;22.88;;;9.48;;
25972;SDS011;13765;51.166;4.466;2022-11-14T09:34:36;21.88;;;9.18;;
25972;SDS011;13765;51.166;4.466;2022-11-14T09:37:06;23.20;;;9.15;;
25972;SDS011;13765;51.166;4.466;2022-11-14T09:39:32;23.80;;;9.43;;
25972;SDS011;13765;51.166;4.466;2022-11-14T09:44:52;23.40;;;9.60;;
25972;SDS011;13765;51.166;4.466;2022-11-14T09:47:25;19.85;;;9.20;;
25972;SDS011;13765;51.166;4.466;2022-11-14T09:49:58;23.38;;;9.48;;
25972;SDS011;13765;51.166;4.466;2022-11-14T09:52:42;24.48;;;10.07;;
25972;SDS011;13765;51.166;4.466;2022-11-14T09:55:17;24.30;;;10.02;;
25972;SDS011;13765;51.166;4.466;2022-11-14T09:57:45;27.30;;;9.82;;
25972;SDS011;13765;51.166;4.466;2022-11-14T10:00:21;23.77;;;9.07;;
25972;SDS011;13765;51.166;4.466;2022-11-14T10:17:44;24.13;;;9.82;;
25972;SDS011;13765;51.166;4.466;2022-11-14T10:20:32;21.42;;;9.07;;
25972;SDS011;13765;51.166;4.466;2022-11-14T10:28:45;23.83;;;9.30;;
25972;SDS011;13765;51.166;4.466;2022-11-14T10:39:49;23.77;;;10.02;;
25972;SDS011;13765;51.166;4.466;2022-11-14T10:42:38;22.45;;;7.95;;
25972;SDS011;13765;51.166;4.466;2022-11-14T10:45:15;25.58;;;10.35;;
25972;SDS011;13765;51.166;4.466;2022-11-14T10:47:55;22.15;;;9.15;;
25972;SDS011;13765;51.166;4.466;2022-11-14T10:50:25;24.88;;;9.43;;
25972;SDS011;13765;51.166;4.466;2022-11-14T10:53:00;25.27;;;9.68;;
25972;SDS011;13765;51.166;4.466;2022-11-14T10:55:30;22.33;;;9.27;;
25972;SDS011;13765;51.166;4.466;2022-11-14T10:57:57;28.38;;;10.40;;
25972;SDS011;13765;51.166;4.466;2022-11-14T11:00:23;31.23;;;11.30;;
25972;SDS011;13765;51.166;4.466;2022-11-14T11:02:55;26.33;;;10.00;;
25972;SDS011;13765;51.166;4.466;2022-11-14T11:05:24;26.65;;;10.90;;
25972;SDS011;13765;51.166;4.466;2022-11-14T11:07:56;22.77;;;9.43;;
25972;SDS011;13765;51.166;4.466;2022-11-14T11:10:44;27.35;;;11.60;;
25972;SDS011;13765;51.166;4.466;2022-11-14T11:13:47;24.48;;;10.27;;
25972;SDS011;13765;51.166;4.466;2022-11-14T11:16:23;25.02;;;9.50;;
25972;SDS011;13765;51.166;4.466;2022-11-14T11:18:50;27.05;;;10.82;;
25972;SDS011;13765;51.166;4.466;2022-11-14T11:21:17;27.80;;;10.68;;
25972;SDS011;13765;51.166;4.466;2022-11-14T11:23:49;23.02;;;9.70;;
25972;SDS011;13765;51.166;4.466;2022-11-14T11:28:42;34.15;;;10.38;;
25972;SDS011;13765;51.166;4.466;2022-11-14T11:31:08;25.45;;;10.43;;
25972;SDS011;13765;51.166;4.466;2022-11-14T11:33:38;28.02;;;8.95;;
25972;SDS011;13765;51.166;4.466;2022-11-14T11:36:17;25.42;;;8.68;;
25972;SDS011;13765;51.166;4.466;2022-11-14T11:38:45;30.35;;;9.77;;
25972;SDS011;13765;51.166;4.466;2022-11-14T11:44:04;22.98;;;7.90;;
25972;SDS011;13765;51.166;4.466;2022-11-14T11:49:22;22.25;;;8.82;;
25972;SDS011;13765;51.166;4.466;2022-11-14T11:52:03;23.02;;;7.90;;
25972;SDS011;13765;51.166;4.466;2022-11-14T11:54:44;20.63;;;7.75;;
25972;SDS011;13765;51.166;4.466;2022-11-14T11:57:27;14.88;;;6.28;;
25972;SDS011;13765;51.166;4.466;2022-11-14T12:00:13;25.15;;;9.73;;
25972;SDS011;13765;51.166;4.466;2022-11-14T12:02:40;19.80;;;8.73;;
25972;SDS011;13765;51.166;4.466;2022-11-14T12:05:12;22.92;;;7.85;;
25972;SDS011;13765;51.166;4.466;2022-11-14T12:10:35;22.63;;;8.15;;
25972;SDS011;13765;51.166;4.466;2022-11-14T12:29:31;16.63;;;7.03;;
25972;SDS011;13765;51.166;4.466;2022-11-14T12:32:04;22.27;;;8.48;;
25972;SDS011;13765;51.166;4.466;2022-11-14T12:34:37;21.23;;;8.50;;
25972;SDS011;13765;51.166;4.466;2022-11-14T12:37:53;21.35;;;8.88;;
25972;SDS011;13765;51.166;4.466;2022-11-14T12:42:56;22.10;;;8.32;;
25972;SDS011;13765;51.166;4.466;2022-11-14T12:48:14;23.13;;;9.65;;
25972;SDS011;13765;51.166;4.466;2022-11-14T12:50:50;22.90;;;7.97;;
25972;SDS011;13765;51.166;4.466;2022-11-14T12:54:00;24.15;;;9.18;;
25972;SDS011;13765;51.166;4.466;2022-11-14T12:56:15;23.40;;;7.60;;
25972;SDS011;13765;51.166;4.466;2022-11-14T12:58:45;17.58;;;7.60;;
25972;SDS011;13765;51.166;4.466;2022-11-14T13:12:17;23.98;;;9.23;;
25972;SDS011;13765;51.166;4.466;2022-11-14T13:15:21;23.00;;;7.78;;
25972;SDS011;13765;51.166;4.466;2022-11-14T13:21:01;24.90;;;8.85;;
25972;SDS011;13765;51.166;4.466;2022-11-14T13:23:59;24.17;;;8.77;;
25972;SDS011;13765;51.166;4.466;2022-11-14T13:28:54;24.08;;;8.98;;
25972;SDS011;13765;51.166;4.466;2022-11-14T13:34:27;24.30;;;7.47;;
25972;SDS011;13765;51.166;4.466;2022-11-14T13:39:58;21.83;;;8.25;;
25972;SDS011;13765;51.166;4.466;2022-11-14T13:50:38;22.95;;;10.02;;
25972;SDS011;13765;51.166;4.466;2022-11-14T13:53:11;25.70;;;9.70;;
25972;SDS011;13765;51.166;4.466;2022-11-14T13:55:50;24.33;;;9.23;;
25972;SDS011;13765;51.166;4.466;2022-11-14T14:18:21;27.15;;;9.00;;
25972;SDS011;13765;51.166;4.466;2022-11-14T14:26:28;28.55;;;11.77;;
25972;SDS011;13765;51.166;4.466;2022-11-14T14:29:10;29.38;;;11.15;;
25972;SDS011;13765;51.166;4.466;2022-11-14T14:31:45;30.00;;;13.50;;
25972;SDS011;13765;51.166;4.466;2022-11-14T14:34:44;31.63;;;13.68;;
25972;SDS011;13765;51.166;4.466;2022-11-14T14:37:14;26.17;;;11.13;;
25972;SDS011;13765;51.166;4.466;2022-11-14T14:39:56;27.02;;;12.77;;
25972;SDS011;13765;51.166;4.466;2022-11-14T14:42:26;28.17;;;11.13;;
25972;SDS011;13765;51.166;4.466;2022-11-14T14:45:00;28.48;;;12.63;;
25972;SDS011;13765;51.166;4.466;2022-11-14T14:47:31;27.77;;;12.82;;
25972;SDS011;13765;51.166;4.466;2022-11-14T14:50:03;27.00;;;11.32;;
25972;SDS011;13765;51.166;4.466;2022-11-14T14:52:34;30.95;;;15.25;;
25972;SDS011;13765;51.166;4.466;2022-11-14T14:55:05;34.72;;;13.75;;
25972;SDS011;13765;51.166;4.466;2022-11-14T14:57:44;36.97;;;14.10;;
25972;SDS011;13765;51.166;4.466;2022-11-14T15:00:18;28.98;;;11.65;;
25972;SDS011;13765;51.166;4.466;2022-11-14T15:02:54;31.13;;;14.55;;
25972;SDS011;13765;51.166;4.466;2022-11-14T15:05:24;34.53;;;15.30;;
25972;SDS011;13765;51.166;4.466;2022-11-14T15:07:56;27.88;;;14.10;;
25972;SDS011;13765;51.166;4.466;2022-11-14T15:10:27;35.15;;;13.23;;
25972;SDS011;13765;51.166;4.466;2022-11-14T15:12:55;36.78;;;16.13;;
25972;SDS011;13765;51.166;4.466;2022-11-14T15:15:23;39.63;;;15.60;;
25972;SDS011;13765;51.166;4.466;2022-11-14T15:17:53;30.58;;;13.45;;
25972;SDS011;13765;51.166;4.466;2022-11-14T15:20:39;32.83;;;14.27;;
25972;SDS011;13765;51.166;4.466;2022-11-14T15:23:16;39.13;;;15.23;;
25972;SDS011;13765;51.166;4.466;2022-11-14T15:25:44;33.20;;;14.25;;
25972;SDS011;13765;51.166;4.466;2022-11-14T15:28:12;41.67;;;17.83;;
25972;SDS011;13765;51.166;4.466;2022-11-14T15:30:41;41.90;;;15.18;;
25972;SDS011;13765;51.166;4.466;2022-11-14T15:33:26;32.05;;;13.20;;
25972;SDS011;13765;51.166;4.466;2022-11-14T15:36:10;37.10;;;14.95;;
25972;SDS011;13765;51.166;4.466;2022-11-14T15:38:56;32.65;;;14.13;;
25972;SDS011;13765;51.166;4.466;2022-11-14T15:41:42;33.05;;;12.88;;
25972;SDS011;13765;51.166;4.466;2022-11-14T15:44:30;32.38;;;14.73;;
25972;SDS011;13765;51.166;4.466;2022-11-14T15:47:02;28.60;;;12.93;;
25972;SDS011;13765;51.166;4.466;2022-11-14T15:49:32;30.13;;;13.63;;
25972;SDS011;13765;51.166;4.466;2022-11-14T15:52:01;30.73;;;11.43;;
25972;SDS011;13765;51.166;4.466;2022-11-14T15:54:31;31.38;;;13.07;;
25972;SDS011;13765;51.166;4.466;2022-11-14T15:56:58;34.78;;;12.70;;
25972;SDS011;13765;51.166;4.466;2022-11-14T15:59:51;31.17;;;12.57;;
25972;SDS011;13765;51.166;4.466;2022-11-14T16:02:25;28.30;;;11.07;;
25972;SDS011;13765;51.166;4.466;2022-11-14T16:04:54;32.22;;;13.65;;
25972;SDS011;13765;51.166;4.466;2022-11-14T16:07:24;34.65;;;13.48;;
25972;SDS011;13765;51.166;4.466;2022-11-14T16:09:53;33.63;;;12.57;;
25972;SDS011;13765;51.166;4.466;2022-11-14T16:12:19;33.13;;;13.50;;
25972;SDS011;13765;51.166;4.466;2022-11-14T16:14:45;27.40;;;12.57;;
25972;SDS011;13765;51.166;4.466;2022-11-14T16:17:13;32.17;;;12.93;;
25972;SDS011;13765;51.166;4.466;2022-11-14T16:19:40;26.33;;;12.43;;
25972;SDS011;13765;51.166;4.466;2022-11-14T16:22:10;29.08;;;12.77;;
25972;SDS011;13765;51.166;4.466;2022-11-14T16:24:40;31.10;;;12.30;;
25972;SDS011;13765;51.166;4.466;2022-11-14T16:27:07;32.67;;;12.80;;
25972;SDS011;13765;51.166;4.466;2022-11-14T16:29:36;34.15;;;13.25;;
25972;SDS011;13765;51.166;4.466;2022-11-14T16:32:02;35.00;;;14.98;;
25972;SDS011;13765;51.166;4.466;2022-11-14T16:34:35;31.23;;;12.57;;
25972;SDS011;13765;51.166;4.466;2022-11-14T16:37:01;31.83;;;12.40;;
25972;SDS011;13765;51.166;4.466;2022-11-14T16:39:30;32.33;;;14.38;;
25972;SDS011;13765;51.166;4.466;2022-11-14T16:41:59;31.92;;;12.68;;
25972;SDS011;13765;51.166;4.466;2022-11-14T16:44:30;30.20;;;12.55;;
25972;SDS011;13765;51.166;4.466;2022-11-14T16:46:58;32.28;;;12.32;;
25972;SDS011;13765;51.166;4.466;2022-11-14T16:49:26;36.38;;;14.35;;
25972;SDS011;13765;51.166;4.466;2022-11-14T16:51:55;26.15;;;11.23;;
25972;SDS011;13765;51.166;4.466;2022-11-14T16:54:27;32.13;;;13.02;;